Αρχική σελίδα
METAR-TAF:

METAR-TAF

Αεροδρόμια :

Πάλμα ντε Μαγιόρκα, Ισπανία

γεωγραφικό πλάτος: 39-33N, γεωγραφικό μήκος: 002-44E, υψόμετρο: 4 μ

Παρών καιρός

Η αναφορά έγινε 25 λεπτά πριν, στις 22:30 UTC
Ήπιος άνεμος
Θερμοκρασία 17°C
Υγρασία 100%
Πίεση 1018 hPa
Ορατότητα 10 χλμ και άνω
Λίγα νέφη σε ύψος 1200 πόδια

METAR: LEPA 212230Z 00000KT 9999 FEW012 17/17 Q1018 NOSIG

Χρόνος: 00:55 (22:55 UTC)

Πρόγνωση Καιρού

Η αναφορά έγινε 5 ώρες και 55 λεπτά πριν, στις 17:00 UTC
Η πρόγνωση ισχύει από τις 21 στις 18 UTC έως τις 22 στις 18 UTC
Άνεμος 5 kt από Α/BA
Ορατότητα 10 χλμ και άνω
Λίγα νέφη σε ύψος 3000 πόδια
Καθιστάμενος
από 21 στις 18 UTC έως τις 21 στις 20 UTC
Άνεμος 3 kt από μεταβλητές κατευθύνσεις
Καθιστάμενος
από 22 στις 08 UTC έως τις 22 στις 10 UTC
Άνεμος 11 kt από BA

TAF: LEPA 211700Z 2118/2218 06005KT 9999 FEW030 TX24/2212Z TN12/2206Z BECMG 2118/2120 VRB03KT BECMG 2208/2210 04011KT

Μετεωρολογικές αναφορές και προγνώσεις για περισσότερα από 4000 αεροδρόμια (δελτία METAR και TAF).

Οι διαθέσιμοι σταθμοί απεικονίζονται στο χάρτη με κίτρινες και κόκκινες κουκκίδες.

Μετακινήστε το ποντίκι πάνω από τις κουκκίδες για να δείτε το όνομα του σταθμού.

Στη συνέχεια, κάντε κλικ για να δείτε τις μετεωρολογικές αναφορές και τις προγνώσεις καιρού.

Για να αλλάξετε το χάρτη: κάντε κλικ στα πράσινα κουμπιά με τον μαύρο σταυρό για να ζουμάρετε, στο πράσινο κουμπί με την παύλα για να αφαιρέσετε το ζουμ ή στα πράσινα βέλη για να αντιπαραβάλλετε χάρτες.


METAR-TAF: